Terminal Aerodrome Forecast
Issued by NWS

Home | Current Version | Previous Version | Text Only | Print | Product List | Glossary On
Versions: 1 2 3 4 5 6 7 8 9 10 11 12 13
637
FTUS46 KPDT 262333
TAFPSC
TAF
KPSC 262333Z 2700/2724 36006KT P6SM SKC
     FM270700 32005KT P6SM FEW200
     FM271700 35006KT P6SM SCT200
     FM272200 22013G20KT P6SM SCT130 BKN150=

USA.gov is the U.S. government's official web portal to all federal, state and local government web resources and services.